createdAt,value
2022-07-31T00:01:21.245Z,101296.00
2022-07-31T00:03:47.840Z,101294.00
2022-07-31T00:06:14.569Z,101289.00
2022-07-31T00:08:41.126Z,101287.00
2022-07-31T00:11:07.660Z,101300.00
2022-07-31T00:13:56.747Z,101292.00
2022-07-31T00:16:20.763Z,101291.00
2022-07-31T00:18:47.279Z,101289.00
2022-07-31T00:21:14.098Z,101286.00
2022-07-31T00:23:41.165Z,101285.00
2022-07-31T00:26:07.903Z,101286.00
2022-07-31T00:28:34.612Z,101285.00
2022-07-31T00:31:01.318Z,101284.00
2022-07-31T00:33:27.923Z,101279.00
2022-07-31T00:35:54.733Z,101284.00
2022-07-31T00:38:28.585Z,101285.00
2022-07-31T00:40:56.246Z,101276.00
2022-07-31T00:43:22.830Z,101276.00
2022-07-31T00:45:59.161Z,101269.00
2022-07-31T00:48:26.362Z,101271.00
2022-07-31T00:50:54.455Z,101269.00
2022-07-31T00:53:20.949Z,101266.00
2022-07-31T00:55:51.831Z,101265.00
2022-07-31T00:58:18.836Z,101264.00
2022-07-31T01:00:45.351Z,101267.00
2022-07-31T01:03:11.923Z,101268.00
2022-07-31T01:05:38.423Z,101255.00
2022-07-31T01:08:05.284Z,101254.00
2022-07-31T01:10:57.814Z,101257.00
2022-07-31T01:13:56.223Z,101253.00
2022-07-31T01:16:26.266Z,101253.00
2022-07-31T01:18:56.860Z,101254.00
2022-07-31T01:21:36.104Z,101254.00
2022-07-31T01:24:14.526Z,101262.00
2022-07-31T01:27:04.230Z,101266.00
2022-07-31T01:29:44.299Z,101261.00
2022-07-31T01:32:14.731Z,101266.00
2022-07-31T01:34:52.736Z,101269.00
2022-07-31T01:37:30.023Z,101280.00
2022-07-31T01:40:11.838Z,101274.00
2022-07-31T01:42:42.981Z,101278.00
2022-07-31T01:45:10.829Z,101287.00
2022-07-31T01:47:39.620Z,101283.00
2022-07-31T01:50:08.684Z,101278.00
2022-07-31T01:52:58.931Z,101275.00
2022-07-31T01:55:26.897Z,101266.00
2022-07-31T01:57:56.295Z,101267.00
2022-07-31T02:00:34.360Z,101270.00
2022-07-31T02:03:07.697Z,101264.00
2022-07-31T02:05:38.044Z,101271.00
2022-07-31T02:08:06.408Z,101264.00
2022-07-31T02:10:33.247Z,101256.00
2022-07-31T02:13:02.731Z,101259.00
2022-07-31T02:15:31.029Z,101254.00
2022-07-31T02:17:58.603Z,101258.00
2022-07-31T02:20:26.954Z,101260.00
2022-07-31T02:22:57.852Z,101252.00
2022-07-31T02:25:25.141Z,101269.00
2022-07-31T02:27:57.747Z,101258.00
2022-07-31T02:30:38.969Z,101261.00
2022-07-31T02:33:09.821Z,101262.00
2022-07-31T02:35:37.904Z,101252.00
2022-07-31T02:38:21.665Z,101249.00
2022-07-31T02:40:53.026Z,101255.00
2022-07-31T02:43:20.614Z,101256.00
2022-07-31T02:45:47.861Z,101258.00
2022-07-31T02:48:14.495Z,101253.00
2022-07-31T02:50:41.757Z,101257.00
2022-07-31T02:53:08.326Z,101243.00
2022-07-31T02:55:35.359Z,101242.00
2022-07-31T02:58:03.809Z,101239.00
2022-07-31T03:00:30.935Z,101231.00
2022-07-31T03:02:58.150Z,101237.00
2022-07-31T03:05:24.860Z,101242.00
2022-07-31T03:07:51.537Z,101234.00
2022-07-31T03:10:18.496Z,101238.00
2022-07-31T03:12:50.095Z,101237.00
2022-07-31T03:15:22.019Z,101227.00
2022-07-31T03:17:49.921Z,101237.00
2022-07-31T03:20:16.779Z,101242.00
2022-07-31T03:22:44.001Z,101234.00
2022-07-31T03:25:11.239Z,101237.00
2022-07-31T03:27:55.859Z,101243.00
2022-07-31T03:30:25.558Z,101244.00
2022-07-31T03:32:53.233Z,101238.00
2022-07-31T03:35:19.918Z,101238.00
2022-07-31T03:37:46.661Z,101230.00
2022-07-31T03:40:13.368Z,101227.00
2022-07-31T03:42:40.338Z,101233.00
2022-07-31T03:45:08.518Z,101222.00
2022-07-31T03:47:35.363Z,101216.00
2022-07-31T03:50:02.723Z,101227.00
2022-07-31T03:52:30.275Z,101230.00
2022-07-31T03:54:57.044Z,101230.00
2022-07-31T03:57:27.613Z,101240.00
2022-07-31T04:00:00.066Z,101241.00
2022-07-31T04:02:28.397Z,101228.00
2022-07-31T04:04:55.937Z,101230.00
2022-07-31T04:07:22.585Z,101241.00
2022-07-31T04:09:49.174Z,101240.00
2022-07-31T04:12:16.118Z,101244.00
2022-07-31T04:14:42.643Z,101237.00
2022-07-31T04:17:09.568Z,101233.00
2022-07-31T04:19:36.148Z,101231.00
2022-07-31T04:22:03.017Z,101229.00
2022-07-31T04:24:29.866Z,101232.00
2022-07-31T04:26:57.519Z,101236.00
2022-07-31T04:29:24.703Z,101229.00
2022-07-31T04:31:51.216Z,101234.00
2022-07-31T04:34:17.751Z,101229.00
2022-07-31T04:36:44.249Z,101230.00
2022-07-31T04:39:10.745Z,101223.00
2022-07-31T04:41:37.355Z,101231.00
2022-07-31T04:44:03.883Z,101220.00
2022-07-31T04:46:30.408Z,101212.00
2022-07-31T04:48:57.168Z,101216.00
2022-07-31T04:51:24.274Z,101222.00
2022-07-31T04:53:51.023Z,101232.00
2022-07-31T04:56:34.058Z,101234.00
2022-07-31T04:59:02.542Z,101238.00
2022-07-31T05:01:29.101Z,101241.00
2022-07-31T05:03:57.333Z,101242.00
2022-07-31T05:06:41.759Z,101235.00
2022-07-31T05:09:18.863Z,101235.00
2022-07-31T05:11:47.279Z,101235.00
2022-07-31T05:14:16.557Z,101234.00
2022-07-31T05:16:43.654Z,101240.00
2022-07-31T05:19:13.717Z,101249.00
2022-07-31T05:21:49.666Z,101240.00
2022-07-31T05:24:22.697Z,101247.00
2022-07-31T05:27:00.708Z,101242.00
2022-07-31T05:29:27.183Z,101236.00
2022-07-31T05:31:59.697Z,101242.00
2022-07-31T05:34:29.234Z,101251.00
2022-07-31T05:36:58.206Z,101245.00
2022-07-31T05:39:25.252Z,101253.00
2022-07-31T05:41:52.767Z,101255.00
2022-07-31T05:44:19.359Z,101257.00
2022-07-31T05:46:45.838Z,101262.00
2022-07-31T05:49:12.612Z,101247.00
2022-07-31T05:51:42.320Z,101253.00
2022-07-31T05:54:08.810Z,101249.00
2022-07-31T05:56:35.821Z,101258.00
2022-07-31T05:59:02.360Z,101248.00
2022-07-31T06:01:29.008Z,101249.00
2022-07-31T06:03:55.609Z,101243.00
2022-07-31T06:06:22.317Z,101236.00
2022-07-31T06:08:48.797Z,101239.00
2022-07-31T06:11:15.414Z,101240.00
2022-07-31T06:13:43.435Z,101242.00
2022-07-31T06:16:15.980Z,101244.00
2022-07-31T06:18:42.675Z,101243.00
2022-07-31T06:21:09.921Z,101247.00
2022-07-31T06:23:36.439Z,101245.00
2022-07-31T06:26:03.381Z,101251.00
2022-07-31T06:28:46.488Z,101247.00
2022-07-31T06:31:17.481Z,101244.00
2022-07-31T06:33:48.226Z,101236.00
2022-07-31T06:36:17.563Z,101239.00
2022-07-31T06:38:44.102Z,101241.00
2022-07-31T06:41:10.623Z,101248.00
2022-07-31T06:43:37.150Z,101251.00
2022-07-31T06:46:03.717Z,101253.00
2022-07-31T06:48:30.214Z,101253.00
2022-07-31T06:51:27.964Z,101255.00
2022-07-31T06:53:43.603Z,101259.00
2022-07-31T06:56:10.152Z,101265.00
2022-07-31T06:58:36.627Z,101263.00
2022-07-31T07:01:03.263Z,101266.00
2022-07-31T07:03:29.771Z,101270.00
2022-07-31T07:05:56.481Z,101264.00
2022-07-31T07:08:22.992Z,101273.00
2022-07-31T07:10:49.463Z,101274.00
2022-07-31T07:13:15.915Z,101271.00
2022-07-31T07:15:42.407Z,101268.00
2022-07-31T07:18:08.858Z,101272.00
2022-07-31T07:20:35.399Z,101268.00
2022-07-31T07:23:01.919Z,101271.00
2022-07-31T07:25:28.788Z,101263.00
2022-07-31T07:27:56.663Z,101261.00
2022-07-31T07:30:23.925Z,101266.00
2022-07-31T07:32:50.479Z,101253.00
2022-07-31T07:35:16.942Z,101251.00
2022-07-31T07:37:43.471Z,101244.00
2022-07-31T07:40:10.134Z,101235.00
2022-07-31T07:42:36.590Z,101243.00
2022-07-31T07:45:07.971Z,101252.00
2022-07-31T07:47:54.033Z,101253.00
2022-07-31T07:50:26.964Z,101241.00
2022-07-31T07:52:55.789Z,101244.00
2022-07-31T07:55:22.258Z,101228.00
2022-07-31T07:57:48.734Z,101236.00
2022-07-31T08:00:16.171Z,101226.00
2022-07-31T08:02:44.758Z,101239.00
2022-07-31T08:05:11.997Z,101227.00
2022-07-31T08:07:42.743Z,101222.00
2022-07-31T08:10:10.076Z,101225.00
2022-07-31T08:12:37.099Z,101231.00
2022-07-31T08:15:04.720Z,101231.00
2022-07-31T08:17:31.226Z,101226.00
2022-07-31T08:19:57.710Z,101226.00
2022-07-31T08:22:24.192Z,101247.00
2022-07-31T08:24:50.813Z,101229.00
2022-07-31T08:27:37.961Z,101228.00
2022-07-31T08:30:07.594Z,101231.00
2022-07-31T08:32:34.197Z,101229.00
2022-07-31T08:35:00.709Z,101230.00
2022-07-31T08:37:52.466Z,101230.00
2022-07-31T08:40:13.932Z,101231.00
2022-07-31T08:42:40.413Z,101227.00
2022-07-31T08:45:08.075Z,101220.00
2022-07-31T08:47:36.375Z,101225.00
2022-07-31T08:50:05.429Z,101220.00
2022-07-31T08:52:34.225Z,101218.00
2022-07-31T08:55:06.183Z,101213.00
2022-07-31T08:57:33.065Z,101214.00
2022-07-31T08:59:59.530Z,101209.00
2022-07-31T09:02:26.443Z,101213.00
2022-07-31T09:04:53.132Z,101211.00
2022-07-31T09:07:19.655Z,101203.00
2022-07-31T09:09:51.967Z,101208.00
2022-07-31T09:12:34.276Z,101201.00
2022-07-31T09:15:01.609Z,101204.00
2022-07-31T09:17:53.674Z,101196.00
2022-07-31T09:20:25.065Z,101195.00
2022-07-31T09:23:08.875Z,101195.00
2022-07-31T09:25:35.597Z,101193.00
2022-07-31T09:28:07.401Z,101197.00
2022-07-31T09:30:34.534Z,101193.00
2022-07-31T09:33:17.496Z,101198.00
2022-07-31T09:35:53.489Z,101193.00
2022-07-31T09:38:20.702Z,101181.00
2022-07-31T09:40:57.054Z,101182.00
2022-07-31T09:43:25.953Z,101179.00
2022-07-31T09:46:01.959Z,101181.00
2022-07-31T09:48:29.630Z,101172.00
2022-07-31T09:51:03.311Z,101173.00
2022-07-31T09:53:51.933Z,101176.00
2022-07-31T09:56:18.824Z,101175.00
2022-07-31T09:58:45.332Z,101172.00
2022-07-31T10:01:13.184Z,101172.00
2022-07-31T10:03:40.704Z,101176.00
2022-07-31T10:06:14.716Z,101156.00
2022-07-31T10:08:44.502Z,101163.00
2022-07-31T10:11:16.657Z,101165.00
2022-07-31T10:13:49.105Z,101158.00
2022-07-31T10:16:16.518Z,101164.00
2022-07-31T10:18:47.190Z,101155.00
2022-07-31T10:21:18.123Z,101148.00
2022-07-31T10:23:45.615Z,101153.00
2022-07-31T10:26:12.973Z,101148.00
2022-07-31T10:28:39.694Z,101151.00
2022-07-31T10:31:06.437Z,101152.00
2022-07-31T10:33:49.006Z,101145.00
2022-07-31T10:36:21.241Z,101151.00
2022-07-31T10:39:05.810Z,101144.00
2022-07-31T10:41:59.915Z,101145.00
2022-07-31T10:44:45.410Z,101140.00
2022-07-31T10:47:17.224Z,101130.00
2022-07-31T10:49:46.369Z,101143.00
2022-07-31T10:52:12.893Z,101133.00
2022-07-31T10:54:45.716Z,101135.00
2022-07-31T10:57:23.120Z,101125.00
2022-07-31T10:59:50.154Z,101125.00
2022-07-31T11:02:33.835Z,101132.00
2022-07-31T11:05:21.002Z,101120.00
2022-07-31T11:07:59.143Z,101115.00
2022-07-31T11:10:25.673Z,101154.00
2022-07-31T11:13:07.443Z,101128.00
2022-07-31T11:15:34.762Z,101154.00
2022-07-31T11:18:27.517Z,101150.00
2022-07-31T11:21:00.037Z,101148.00
2022-07-31T11:23:30.001Z,101120.00
2022-07-31T11:26:00.472Z,101142.00
2022-07-31T11:28:26.993Z,101137.00
2022-07-31T11:30:58.802Z,101110.00
2022-07-31T11:33:43.666Z,101134.00
2022-07-31T11:36:11.692Z,101137.00
2022-07-31T11:38:40.121Z,101143.00
2022-07-31T11:41:08.151Z,101122.00
2022-07-31T11:43:37.695Z,101131.00
2022-07-31T11:46:04.889Z,101107.00
2022-07-31T11:48:42.244Z,101103.00
2022-07-31T11:51:17.858Z,101122.00
2022-07-31T11:53:44.464Z,101091.00
2022-07-31T11:56:10.931Z,101121.00
2022-07-31T11:58:38.992Z,101121.00
2022-07-31T12:01:05.553Z,101123.00
2022-07-31T12:03:37.649Z,101133.00
2022-07-31T12:06:05.706Z,101132.00
2022-07-31T12:08:32.880Z,101129.00
2022-07-31T12:11:00.324Z,101121.00
2022-07-31T12:13:28.372Z,101126.00
2022-07-31T12:16:00.600Z,101124.00
2022-07-31T12:18:28.874Z,101115.00
2022-07-31T12:21:00.939Z,101102.00
2022-07-31T12:23:41.434Z,101076.00
2022-07-31T12:26:11.112Z,101070.00
2022-07-31T12:28:37.705Z,101088.00
2022-07-31T12:31:04.605Z,101062.00
2022-07-31T12:33:42.869Z,101064.00
2022-07-31T12:36:14.709Z,101078.00
2022-07-31T12:38:45.341Z,101051.00
2022-07-31T12:41:14.740Z,101057.00
2022-07-31T12:43:50.970Z,101060.00
2022-07-31T12:46:19.204Z,101051.00
2022-07-31T12:48:46.338Z,101051.00
2022-07-31T12:51:13.433Z,101050.00
2022-07-31T12:53:40.000Z,101049.00
2022-07-31T12:56:11.712Z,101036.00
2022-07-31T12:58:38.189Z,101048.00
2022-07-31T13:01:04.683Z,101046.00
2022-07-31T13:03:39.070Z,101041.00
2022-07-31T13:06:13.917Z,101035.00
2022-07-31T13:08:40.804Z,101053.00
2022-07-31T13:11:07.341Z,101028.00
2022-07-31T13:13:33.823Z,101019.00
2022-07-31T13:16:00.616Z,101054.00
2022-07-31T13:18:27.081Z,101028.00
2022-07-31T13:20:53.629Z,101018.00
2022-07-31T13:23:21.424Z,101010.00
2022-07-31T13:25:49.569Z,101009.00
2022-07-31T13:28:16.085Z,101033.00
2022-07-31T13:30:47.002Z,101027.00
2022-07-31T13:33:13.518Z,101034.00
2022-07-31T13:35:39.995Z,101032.00
2022-07-31T13:38:06.798Z,100993.00
2022-07-31T13:40:52.081Z,100987.00
2022-07-31T13:43:18.682Z,100989.00
2022-07-31T13:45:46.143Z,100978.00
2022-07-31T13:48:12.659Z,100979.00
2022-07-31T13:50:42.065Z,100982.00
2022-07-31T13:53:09.546Z,100978.00
2022-07-31T13:55:36.243Z,100972.00
2022-07-31T13:58:03.232Z,100969.00
2022-07-31T14:00:30.694Z,100975.00
2022-07-31T14:02:57.785Z,100964.00
2022-07-31T14:05:26.475Z,100964.00
2022-07-31T14:07:53.609Z,100961.00
2022-07-31T14:10:21.241Z,100970.00
2022-07-31T14:12:48.636Z,100961.00
2022-07-31T14:15:16.652Z,100959.00
2022-07-31T14:17:43.526Z,100960.00
2022-07-31T14:20:10.399Z,100951.00
2022-07-31T14:22:36.997Z,100955.00
2022-07-31T14:25:04.009Z,100951.00
2022-07-31T14:27:30.734Z,100949.00
2022-07-31T14:29:57.410Z,100942.00
2022-07-31T14:32:25.068Z,100944.00
2022-07-31T14:34:52.017Z,100943.00
2022-07-31T14:37:18.660Z,100940.00
2022-07-31T14:39:45.390Z,100947.00
2022-07-31T14:42:13.743Z,100975.00
2022-07-31T14:44:42.117Z,100942.00
2022-07-31T14:47:10.441Z,100942.00
2022-07-31T14:50:07.836Z,100943.00
2022-07-31T14:52:24.422Z,100939.00
2022-07-31T14:54:53.275Z,100949.00
2022-07-31T14:57:22.414Z,100937.00
2022-07-31T14:59:50.072Z,100938.00
2022-07-31T15:02:21.783Z,100939.00
2022-07-31T15:04:48.602Z,100934.00
2022-07-31T15:07:34.338Z,100937.00
2022-07-31T15:10:03.370Z,100945.00
2022-07-31T15:12:29.886Z,100949.00
2022-07-31T15:14:56.389Z,100948.00
2022-07-31T15:17:22.901Z,100943.00
2022-07-31T15:19:49.517Z,100937.00
2022-07-31T15:22:19.064Z,100943.00
2022-07-31T15:24:49.059Z,100946.00
2022-07-31T15:27:18.075Z,100942.00
2022-07-31T15:30:03.931Z,100936.00
2022-07-31T15:32:31.181Z,100936.00
2022-07-31T15:34:57.652Z,100939.00
2022-07-31T15:37:24.123Z,100938.00
2022-07-31T15:40:03.099Z,100930.00
2022-07-31T15:42:31.452Z,100931.00
2022-07-31T15:44:58.001Z,100936.00
2022-07-31T15:47:24.460Z,100942.00
2022-07-31T15:49:50.926Z,100937.00
2022-07-31T15:52:19.273Z,100956.00
2022-07-31T15:54:46.413Z,100958.00
2022-07-31T15:57:13.499Z,100957.00
2022-07-31T15:59:40.141Z,100966.00
2022-07-31T16:02:07.195Z,100945.00
2022-07-31T16:04:34.758Z,100933.00
2022-07-31T16:08:31.292Z,100946.00
2022-07-31T16:10:03.788Z,100925.00
2022-07-31T16:12:35.457Z,100921.00
2022-07-31T16:15:02.526Z,100930.00
2022-07-31T16:17:37.901Z,100938.00
2022-07-31T16:20:10.040Z,100941.00
2022-07-31T16:22:38.532Z,100941.00
2022-07-31T16:25:06.392Z,100932.00
2022-07-31T16:27:32.905Z,100918.00
2022-07-31T16:30:01.989Z,100926.00
2022-07-31T16:32:29.176Z,100922.00
2022-07-31T16:35:00.186Z,100920.00
2022-07-31T16:37:51.402Z,100930.00
2022-07-31T16:40:28.434Z,100926.00
2022-07-31T16:42:56.285Z,100927.00
2022-07-31T16:45:23.196Z,100929.00
2022-07-31T16:47:51.627Z,100920.00
2022-07-31T16:50:18.793Z,100930.00
2022-07-31T16:52:45.279Z,100926.00
2022-07-31T16:55:11.822Z,100923.00
2022-07-31T16:57:38.348Z,100923.00
2022-07-31T17:00:07.191Z,100927.00
2022-07-31T17:02:33.741Z,100924.00
2022-07-31T17:05:00.534Z,100924.00
2022-07-31T17:07:26.989Z,100927.00
2022-07-31T17:09:53.501Z,100930.00
2022-07-31T17:12:20.437Z,100927.00
2022-07-31T17:14:48.795Z,100930.00
2022-07-31T17:17:16.759Z,100923.00
2022-07-31T17:19:47.792Z,100926.00
2022-07-31T17:22:17.985Z,100927.00
2022-07-31T17:24:50.534Z,100929.00
2022-07-31T17:27:18.026Z,100927.00
2022-07-31T17:29:44.648Z,100929.00
2022-07-31T17:32:11.593Z,100928.00
2022-07-31T17:34:38.760Z,100926.00
2022-07-31T17:37:06.923Z,100917.00
2022-07-31T17:39:33.770Z,100926.00
2022-07-31T17:42:02.912Z,100926.00
2022-07-31T17:44:29.479Z,100925.00
2022-07-31T17:46:57.782Z,100928.00
2022-07-31T17:49:24.945Z,100921.00
2022-07-31T17:51:59.162Z,100931.00
2022-07-31T17:54:27.593Z,100924.00
2022-07-31T17:56:54.154Z,100927.00
2022-07-31T17:59:20.729Z,100922.00
2022-07-31T18:01:51.922Z,100918.00
2022-07-31T18:04:19.047Z,100927.00
2022-07-31T18:06:45.544Z,100927.00
2022-07-31T18:09:12.054Z,100922.00
2022-07-31T18:11:38.543Z,100927.00
2022-07-31T18:14:05.181Z,100927.00
2022-07-31T18:16:31.705Z,100926.00
2022-07-31T18:18:58.274Z,100921.00
2022-07-31T18:21:24.844Z,100921.00
2022-07-31T18:23:51.304Z,100926.00
2022-07-31T18:26:19.040Z,100920.00
2022-07-31T18:28:45.549Z,100924.00
2022-07-31T18:31:31.478Z,100928.00
2022-07-31T18:33:58.710Z,100926.00
2022-07-31T18:36:25.506Z,100922.00
2022-07-31T18:38:52.140Z,100922.00
2022-07-31T18:41:18.786Z,100927.00
2022-07-31T18:43:46.502Z,100920.00
2022-07-31T18:46:12.971Z,100929.00
2022-07-31T18:48:39.698Z,100924.00
2022-07-31T18:51:06.335Z,100919.00
2022-07-31T18:53:33.536Z,100930.00
2022-07-31T18:56:00.042Z,100935.00
2022-07-31T18:58:26.533Z,100928.00
2022-07-31T19:00:55.246Z,100933.00
2022-07-31T19:03:23.410Z,100930.00
2022-07-31T19:05:52.261Z,100933.00
2022-07-31T19:08:20.363Z,100932.00
2022-07-31T19:10:49.310Z,100939.00
2022-07-31T19:13:18.963Z,100942.00
2022-07-31T19:15:47.755Z,100940.00
2022-07-31T19:18:15.124Z,100936.00
2022-07-31T19:20:58.772Z,100932.00
2022-07-31T19:23:31.811Z,100927.00
2022-07-31T19:26:03.389Z,100930.00
2022-07-31T19:28:34.822Z,100928.00
2022-07-31T19:31:01.620Z,100931.00
2022-07-31T19:33:28.077Z,100925.00
2022-07-31T19:36:00.919Z,100934.00
2022-07-31T19:38:30.121Z,100932.00
2022-07-31T19:40:56.656Z,100928.00
2022-07-31T19:43:23.145Z,100927.00
2022-07-31T19:46:02.661Z,100918.00
2022-07-31T19:48:36.832Z,100918.00
2022-07-31T19:51:04.265Z,100919.00
2022-07-31T19:53:30.972Z,100915.00
2022-07-31T19:55:57.615Z,100914.00
2022-07-31T19:58:24.107Z,100916.00
2022-07-31T20:00:50.620Z,100912.00
2022-07-31T20:03:17.170Z,100914.00
2022-07-31T20:05:43.684Z,100904.00
2022-07-31T20:08:10.418Z,100907.00
2022-07-31T20:10:37.138Z,100903.00
2022-07-31T20:13:03.726Z,100898.00
2022-07-31T20:15:52.624Z,100896.00
2022-07-31T20:18:27.520Z,100905.00
2022-07-31T20:20:57.143Z,100903.00
2022-07-31T20:23:24.244Z,100903.00
2022-07-31T20:25:50.836Z,100905.00
2022-07-31T20:28:17.320Z,100904.00
2022-07-31T20:30:43.995Z,100897.00
2022-07-31T20:33:11.317Z,100891.00
2022-07-31T20:35:48.808Z,100894.00
2022-07-31T20:38:21.253Z,100889.00
2022-07-31T20:40:54.037Z,100887.00
2022-07-31T20:43:25.813Z,100892.00
2022-07-31T20:45:53.214Z,100893.00
2022-07-31T20:48:23.866Z,100894.00
2022-07-31T20:50:50.837Z,100895.00
2022-07-31T20:53:19.615Z,100897.00
2022-07-31T20:55:49.506Z,100906.00
2022-07-31T20:58:17.835Z,100899.00
2022-07-31T21:00:45.328Z,100898.00
2022-07-31T21:03:11.817Z,100897.00
2022-07-31T21:05:38.404Z,100899.00
2022-07-31T21:08:04.953Z,100897.00
2022-07-31T21:10:31.548Z,100893.00
2022-07-31T21:12:58.280Z,100885.00
2022-07-31T21:15:43.990Z,100880.00
2022-07-31T21:18:15.973Z,100875.00
2022-07-31T21:20:52.013Z,100872.00
2022-07-31T21:23:24.966Z,100880.00
2022-07-31T21:25:59.081Z,100862.00
2022-07-31T21:28:28.037Z,100864.00
2022-07-31T21:30:56.031Z,100872.00
2022-07-31T21:33:24.131Z,100871.00
2022-07-31T21:35:50.788Z,100864.00
2022-07-31T21:38:17.792Z,100864.00
2022-07-31T21:40:45.220Z,100869.00
2022-07-31T21:43:12.532Z,100862.00
2022-07-31T21:45:54.868Z,100857.00
2022-07-31T21:48:26.352Z,100853.00
2022-07-31T21:50:53.579Z,100856.00
2022-07-31T21:53:22.219Z,100857.00
2022-07-31T21:55:49.213Z,100852.00
2022-07-31T21:58:16.019Z,100850.00
2022-07-31T22:00:42.894Z,100851.00
2022-07-31T22:03:09.507Z,100854.00
2022-07-31T22:05:54.439Z,100858.00
2022-07-31T22:08:21.278Z,100861.00
2022-07-31T22:10:50.370Z,100860.00
2022-07-31T22:13:17.518Z,100864.00
2022-07-31T22:15:51.349Z,100872.00
2022-07-31T22:18:32.151Z,100877.00
2022-07-31T22:21:02.510Z,100878.00
2022-07-31T22:23:29.611Z,100882.00
2022-07-31T22:25:56.683Z,100878.00
2022-07-31T22:28:24.575Z,100874.00
2022-07-31T22:30:52.509Z,100886.00
2022-07-31T22:33:19.327Z,100879.00
2022-07-31T22:35:59.036Z,100888.00
2022-07-31T22:38:27.102Z,100887.00
2022-07-31T22:40:53.748Z,100882.00
2022-07-31T22:44:10.529Z,100878.00
2022-07-31T22:46:11.314Z,100888.00
2022-07-31T22:48:40.487Z,100885.00
2022-07-31T22:51:07.308Z,100888.00
2022-07-31T22:53:34.905Z,100898.00
2022-07-31T22:56:01.389Z,100898.00
2022-07-31T22:58:27.878Z,100898.00
2022-07-31T23:00:55.142Z,100900.00
2022-07-31T23:03:21.607Z,100881.00
2022-07-31T23:06:02.492Z,100898.00
2022-07-31T23:08:34.790Z,100900.00
2022-07-31T23:11:01.363Z,100895.00
2022-07-31T23:13:27.845Z,100901.00
2022-07-31T23:15:54.454Z,100902.00
2022-07-31T23:18:21.029Z,100902.00
2022-07-31T23:20:47.526Z,100903.00
2022-07-31T23:23:14.023Z,100902.00
2022-07-31T23:25:40.513Z,100905.00
2022-07-31T23:28:07.186Z,100898.00
2022-07-31T23:30:33.722Z,100898.00
2022-07-31T23:33:00.295Z,100897.00
2022-07-31T23:35:27.219Z,100895.00
2022-07-31T23:37:53.717Z,100889.00
2022-07-31T23:40:20.232Z,100889.00
2022-07-31T23:42:48.678Z,100896.00
2022-07-31T23:45:15.618Z,100882.00
2022-07-31T23:47:46.134Z,100887.00
2022-07-31T23:50:14.313Z,100878.00
2022-07-31T23:52:41.394Z,100890.00
2022-07-31T23:55:08.269Z,100888.00
2022-07-31T23:57:35.986Z,100882.00
